createdAt,value
2023-01-12T00:01:39.401Z,100804.38
2023-01-12T00:04:08.125Z,100808.41
2023-01-12T00:06:36.526Z,100806.91
2023-01-12T00:09:07.410Z,100812.41
2023-01-12T00:11:37.494Z,100806.16
2023-01-12T00:14:08.991Z,100804.38
2023-01-12T00:16:48.438Z,100800.34
2023-01-12T00:19:18.383Z,100795.13
2023-01-12T00:21:56.383Z,100793.19
2023-01-12T00:24:27.042Z,100796.19
2023-01-12T00:26:56.594Z,100787.69
2023-01-12T00:29:27.772Z,100782.59
2023-01-12T00:31:57.923Z,100778.56
2023-01-12T00:34:29.329Z,100774.53
2023-01-12T00:37:00.978Z,100774.75
2023-01-12T00:39:29.535Z,100774.03
2023-01-12T00:42:15.580Z,100771.91
2023-01-12T00:45:02.872Z,100772.84
2023-01-12T00:47:31.001Z,100768.59
2023-01-12T00:49:59.664Z,100766.34
2023-01-12T00:52:31.402Z,100768.06
2023-01-12T00:55:01.519Z,100767.84
2023-01-12T00:57:29.758Z,100764.56
2023-01-12T01:00:00.626Z,100753.41
2023-01-12T01:02:30.073Z,100757.25
2023-01-12T01:04:59.478Z,100758.59
2023-01-12T01:07:28.977Z,100757.03
2023-01-12T01:09:57.230Z,100757.25
2023-01-12T01:12:25.307Z,100767.22
2023-01-12T01:14:54.480Z,100764.69
2023-01-12T01:17:23.956Z,100764.19
2023-01-12T01:19:52.478Z,100765.88
2023-01-12T01:22:20.968Z,100769.59
2023-01-12T01:24:49.336Z,100776.09
2023-01-12T01:27:18.817Z,100783.25
2023-01-12T01:29:47.170Z,100776.22
2023-01-12T01:32:15.560Z,100784.19
2023-01-12T01:34:46.500Z,100784.81
2023-01-12T01:37:14.741Z,100793.31
2023-01-12T01:39:42.811Z,100795.09
2023-01-12T01:42:28.059Z,100791.81
2023-01-12T01:45:03.046Z,100786.84
2023-01-12T01:47:40.422Z,100791.06
2023-01-12T01:50:17.947Z,100779.31
2023-01-12T01:52:53.286Z,100775.38
2023-01-12T01:55:24.430Z,100768.19
2023-01-12T01:57:57.373Z,100762.25
2023-01-12T02:00:26.520Z,100760.47
2023-01-12T02:02:58.295Z,100760.75
2023-01-12T02:05:30.069Z,100755.34
2023-01-12T02:08:07.050Z,100751.44
2023-01-12T02:10:35.587Z,100744.63
2023-01-12T02:13:35.329Z,100744.75
2023-01-12T02:16:21.677Z,100744.25
2023-01-12T02:18:57.836Z,100744.66
2023-01-12T02:21:54.133Z,100730.56
2023-01-12T02:24:54.068Z,100730.34
2023-01-12T02:27:36.174Z,100722.78
2023-01-12T02:30:47.456Z,100727.25
2023-01-12T02:33:31.785Z,100723.22
2023-01-12T02:36:07.078Z,100706.97
2023-01-12T02:38:43.002Z,100701.03
2023-01-12T02:41:43.981Z,100709.22
2023-01-12T02:44:20.737Z,100713.59
2023-01-12T02:46:52.320Z,100704.53
2023-01-12T02:49:30.477Z,100707.84
2023-01-12T02:52:02.852Z,100712.19
2023-01-12T02:54:34.820Z,100701.69
2023-01-12T02:57:06.751Z,100707.22
2023-01-12T02:59:38.759Z,100706.78
2023-01-12T03:02:11.173Z,100699.44
2023-01-12T03:04:41.338Z,100710.50
2023-01-12T03:07:24.429Z,100703.91
2023-01-12T03:09:57.926Z,100703.59
2023-01-12T03:12:30.772Z,100699.56
2023-01-12T03:15:05.573Z,100698.31
2023-01-12T03:17:37.829Z,100699.44
2023-01-12T03:20:16.759Z,100695.63
2023-01-12T03:22:48.333Z,100697.22
2023-01-12T03:25:18.999Z,100697.66
2023-01-12T03:27:52.101Z,100694.47
2023-01-12T03:30:23.896Z,100692.22
2023-01-12T03:32:52.985Z,100692.66
2023-01-12T03:35:29.221Z,100690.75
2023-01-12T03:38:04.149Z,100694.03
2023-01-12T03:40:39.770Z,100684.59
2023-01-12T03:43:15.200Z,100690.97
2023-01-12T03:45:49.548Z,100689.47
2023-01-12T03:48:22.437Z,100687.34
2023-01-12T03:50:55.376Z,100690.31
2023-01-12T03:53:25.487Z,100685.88
2023-01-12T03:55:58.195Z,100681.81
2023-01-12T03:58:31.263Z,100673.53
2023-01-12T04:00:59.535Z,100681.59
2023-01-12T04:03:27.847Z,100674.50
2023-01-12T04:05:57.337Z,100671.22
2023-01-12T04:08:25.698Z,100677.25
2023-01-12T04:10:56.132Z,100672.59
2023-01-12T04:13:23.367Z,100662.41
2023-01-12T04:15:53.698Z,100668.03
2023-01-12T04:18:22.300Z,100653.47
2023-01-12T04:20:50.664Z,100671.72
2023-01-12T04:23:19.339Z,100660.16
2023-01-12T04:25:47.606Z,100662.28
2023-01-12T04:28:17.379Z,100651.66
2023-01-12T04:30:45.915Z,100639.25
2023-01-12T04:33:14.677Z,100628.00
2023-01-12T04:35:43.478Z,100629.47
2023-01-12T04:38:11.607Z,100638.28
2023-01-12T04:40:42.216Z,100639.78
2023-01-12T04:43:12.046Z,100629.47
2023-01-12T04:45:43.636Z,100620.25
2023-01-12T04:48:13.690Z,100624.69
2023-01-12T04:50:42.774Z,100623.22
2023-01-12T04:53:12.849Z,100619.19
2023-01-12T04:55:43.917Z,100617.59
2023-01-12T04:58:12.123Z,100621.94
2023-01-12T05:00:42.267Z,100635.63
2023-01-12T05:03:12.600Z,100628.09
2023-01-12T05:05:45.889Z,100628.63
2023-01-12T05:08:32.353Z,100622.69
2023-01-12T05:11:02.916Z,100622.03
2023-01-12T05:13:32.555Z,100617.03
2023-01-12T05:16:14.055Z,100610.75
2023-01-12T05:18:42.591Z,100602.56
2023-01-12T05:21:10.783Z,100602.97
2023-01-12T05:23:39.487Z,100610.22
2023-01-12T05:26:09.547Z,100601.72
2023-01-12T05:28:38.499Z,100580.81
2023-01-12T05:31:09.449Z,100577.50
2023-01-12T05:33:38.884Z,100573.94
2023-01-12T05:36:09.583Z,100566.38
2023-01-12T05:38:37.918Z,100564.16
2023-01-12T05:41:07.851Z,100558.00
2023-01-12T05:43:54.023Z,100554.19
2023-01-12T05:46:24.948Z,100541.31
2023-01-12T05:48:54.798Z,100542.47
2023-01-12T05:51:23.330Z,100543.13
2023-01-12T05:53:52.888Z,100532.09
2023-01-12T05:56:25.857Z,100526.91
2023-01-12T05:58:57.251Z,100528.50
2023-01-12T06:01:27.182Z,100520.97
2023-01-12T06:03:59.440Z,100525.00
2023-01-12T06:06:31.154Z,100517.69
2023-01-12T06:09:00.459Z,100519.16
2023-01-12T06:11:46.935Z,100526.16
2023-01-12T06:14:18.688Z,100529.53
2023-01-12T06:16:50.141Z,100519.88
2023-01-12T06:19:20.448Z,100523.59
2023-01-12T06:21:52.454Z,100530.19
2023-01-12T06:24:22.459Z,100532.09
2023-01-12T06:26:52.231Z,100531.66
2023-01-12T06:29:22.733Z,100527.38
2023-01-12T06:31:52.052Z,100534.63
2023-01-12T06:34:20.318Z,100537.97
2023-01-12T06:36:49.323Z,100522.69
2023-01-12T06:39:17.814Z,100527.75
2023-01-12T06:42:04.466Z,100526.47
2023-01-12T06:44:34.083Z,100527.97
2023-01-12T06:47:06.112Z,100522.84
2023-01-12T06:49:35.658Z,100516.03
2023-01-12T06:52:04.134Z,100513.28
2023-01-12T06:54:32.460Z,100509.63
2023-01-12T06:57:00.594Z,100501.34
2023-01-12T06:59:30.081Z,100493.81
2023-01-12T07:02:00.680Z,100483.31
2023-01-12T07:04:30.064Z,100482.00
2023-01-12T07:06:58.710Z,100484.97
2023-01-12T07:09:26.920Z,100487.94
2023-01-12T07:11:54.987Z,100498.69
2023-01-12T07:14:25.697Z,100488.69
2023-01-12T07:16:54.579Z,100495.97
2023-01-12T07:19:24.101Z,100480.44
2023-01-12T07:21:53.650Z,100484.09
2023-01-12T07:24:21.782Z,100485.81
2023-01-12T07:26:51.202Z,100494.81
2023-01-12T07:29:20.013Z,100488.69
2023-01-12T07:31:49.796Z,100490.50
2023-01-12T07:34:18.322Z,100487.22
2023-01-12T07:36:49.389Z,100484.66
2023-01-12T07:39:18.026Z,100485.38
2023-01-12T07:42:04.471Z,100476.00
2023-01-12T07:44:34.154Z,100476.16
2023-01-12T07:47:03.136Z,100468.06
2023-01-12T07:49:31.373Z,100460.88
2023-01-12T07:52:01.109Z,100456.63
2023-01-12T07:54:31.409Z,100467.34
2023-01-12T07:57:01.697Z,100453.91
2023-01-12T07:59:29.846Z,100448.13
2023-01-12T08:01:58.249Z,100446.03
2023-01-12T08:04:26.498Z,100457.09
2023-01-12T08:06:56.072Z,100449.94
2023-01-12T08:09:26.003Z,100449.38
2023-01-12T08:11:54.943Z,100454.59
2023-01-12T08:14:28.843Z,100437.25
2023-01-12T08:17:01.662Z,100443.47
2023-01-12T08:19:37.147Z,100447.72
2023-01-12T08:22:11.559Z,100462.13
2023-01-12T08:24:48.874Z,100463.41
2023-01-12T08:27:22.369Z,100457.66
2023-01-12T08:29:55.847Z,100456.00
2023-01-12T08:32:26.396Z,100460.09
2023-01-12T08:34:59.374Z,100460.38
2023-01-12T08:37:35.104Z,100461.25
2023-01-12T08:40:08.861Z,100461.56
2023-01-12T08:42:40.392Z,100467.50
2023-01-12T08:45:10.203Z,100467.66
2023-01-12T08:47:40.749Z,100472.44
2023-01-12T08:50:11.358Z,100468.56
2023-01-12T08:52:39.472Z,100471.50
2023-01-12T08:55:15.169Z,100468.59
2023-01-12T08:57:44.615Z,100470.28
2023-01-12T09:00:17.042Z,100460.84
2023-01-12T09:02:46.918Z,100471.41
2023-01-12T09:05:16.464Z,100471.16
2023-01-12T09:07:44.647Z,100475.25
2023-01-12T09:10:16.327Z,100484.16
2023-01-12T09:12:44.734Z,100476.75
2023-01-12T09:15:13.558Z,100476.50
2023-01-12T09:17:41.892Z,100476.06
2023-01-12T09:20:11.557Z,100477.28
2023-01-12T09:22:40.949Z,100483.22
2023-01-12T09:25:10.608Z,100481.78
2023-01-12T09:27:40.717Z,100500.59
2023-01-12T09:30:10.857Z,100490.78
2023-01-12T09:32:39.444Z,100505.53
2023-01-12T09:35:09.245Z,100493.31
2023-01-12T09:37:38.065Z,100498.84
2023-01-12T09:40:08.124Z,100496.28
2023-01-12T09:42:55.102Z,100488.59
2023-01-12T09:45:43.825Z,100489.41
2023-01-12T09:48:18.554Z,100479.75
2023-01-12T09:50:57.279Z,100487.50
2023-01-12T09:53:32.266Z,100479.63
2023-01-12T09:56:06.327Z,100487.56
2023-01-12T09:59:13.485Z,100480.09
2023-01-12T10:01:43.466Z,100488.69
2023-01-12T10:04:14.442Z,100492.38
2023-01-12T10:06:44.052Z,100491.47
2023-01-12T10:09:18.129Z,100489.50
2023-01-12T10:11:53.431Z,100487.88
2023-01-12T10:15:06.382Z,100482.00
2023-01-12T10:17:51.425Z,100482.91
2023-01-12T10:20:28.124Z,100482.03
2023-01-12T10:23:00.373Z,100483.84
2023-01-12T10:25:38.699Z,100480.94
2023-01-12T10:28:11.235Z,100479.44
2023-01-12T10:30:40.854Z,100484.09
2023-01-12T10:33:17.690Z,100475.06
2023-01-12T10:35:55.506Z,100474.00
2023-01-12T10:38:34.709Z,100469.91
2023-01-12T10:41:18.139Z,100472.69
2023-01-12T10:43:48.819Z,100474.00
2023-01-12T10:46:19.892Z,100473.25
2023-01-12T10:48:51.252Z,100483.97
2023-01-12T10:51:27.875Z,100472.19
2023-01-12T10:53:59.938Z,100477.16
2023-01-12T10:56:32.625Z,100490.44
2023-01-12T10:59:06.105Z,100476.97
2023-01-12T11:01:47.839Z,100480.69
2023-01-12T11:04:21.895Z,100476.25
2023-01-12T11:07:05.058Z,100470.34
2023-01-12T11:09:33.795Z,100477.41
2023-01-12T11:12:07.524Z,100469.28
2023-01-12T11:14:49.094Z,100467.97
2023-01-12T11:17:38.724Z,100470.00
2023-01-12T11:20:20.086Z,100482.22
2023-01-12T11:22:51.915Z,100473.34
2023-01-12T11:25:27.497Z,100472.41
2023-01-12T11:28:01.657Z,100465.22
2023-01-12T11:30:40.793Z,100459.88
2023-01-12T11:33:14.301Z,100445.66
2023-01-12T11:35:52.745Z,100446.59
2023-01-12T11:38:30.082Z,100457.84
2023-01-12T11:40:59.778Z,100454.53
2023-01-12T11:43:49.865Z,100432.38
2023-01-12T11:46:29.032Z,100432.72
2023-01-12T11:49:05.799Z,100440.84
2023-01-12T11:51:36.499Z,100434.19
2023-01-12T11:54:06.980Z,100422.38
2023-01-12T11:57:08.917Z,100422.00
2023-01-12T11:59:50.423Z,100421.44
2023-01-12T12:02:33.444Z,100421.41
2023-01-12T12:05:14.580Z,100415.34
2023-01-12T12:08:02.442Z,100420.50
2023-01-12T12:10:38.255Z,100409.22
2023-01-12T12:13:21.342Z,100404.81
2023-01-12T12:16:04.386Z,100406.09
2023-01-12T12:18:50.017Z,100403.50
2023-01-12T12:21:36.656Z,100405.00
2023-01-12T12:24:19.820Z,100404.63
2023-01-12T12:26:56.596Z,100402.25
2023-01-12T12:29:41.083Z,100401.69
2023-01-12T12:32:23.949Z,100405.03
2023-01-12T12:35:26.485Z,100411.66
2023-01-12T12:38:07.787Z,100409.09
2023-01-12T12:41:13.688Z,100393.38
2023-01-12T12:43:59.503Z,100408.69
2023-01-12T12:46:34.345Z,100394.84
2023-01-12T12:49:06.583Z,100388.75
2023-01-12T12:51:37.466Z,100392.09
2023-01-12T12:54:09.159Z,100395.03
2023-01-12T12:56:39.344Z,100385.25
2023-01-12T12:59:07.596Z,100382.09
2023-01-12T13:01:42.600Z,100384.88
2023-01-12T13:04:14.991Z,100371.94
2023-01-12T13:06:50.403Z,100378.56
2023-01-12T13:09:39.926Z,100377.47
2023-01-12T13:12:37.490Z,100368.97
2023-01-12T13:15:29.641Z,100359.00
2023-01-12T13:17:59.334Z,100353.28
2023-01-12T13:20:53.387Z,100352.00
2023-01-12T13:23:45.166Z,100350.69
2023-01-12T13:26:45.233Z,100352.75
2023-01-12T13:29:49.935Z,100348.69
2023-01-12T13:32:50.844Z,100345.19
2023-01-12T13:35:55.266Z,100346.84
2023-01-12T13:38:45.310Z,100357.00
2023-01-12T13:41:41.146Z,100348.50
2023-01-12T13:44:20.808Z,100348.31
2023-01-12T13:46:53.662Z,100353.66
2023-01-12T13:49:29.512Z,100356.25
2023-01-12T13:52:03.799Z,100349.25
2023-01-12T13:54:35.509Z,100356.25
2023-01-12T13:57:10.890Z,100358.69
2023-01-12T13:59:39.521Z,100349.06
2023-01-12T14:02:18.848Z,100342.59
2023-01-12T14:05:06.429Z,100349.25
2023-01-12T14:07:49.707Z,100339.44
2023-01-12T14:10:28.744Z,100347.03
2023-01-12T14:13:32.491Z,100352.56
2023-01-12T14:16:21.000Z,100355.34
2023-01-12T14:18:53.263Z,100343.34
2023-01-12T14:21:28.945Z,100353.13
2023-01-12T14:24:15.621Z,100348.88
2023-01-12T14:26:44.508Z,100352.75
2023-01-12T14:29:26.025Z,100349.59
2023-01-12T14:31:56.349Z,100345.56
2023-01-12T14:34:31.906Z,100354.97
2023-01-12T14:37:04.726Z,100346.66
2023-01-12T14:39:41.489Z,100357.56
2023-01-12T14:42:35.208Z,100347.97
2023-01-12T14:45:37.476Z,100362.34
2023-01-12T14:48:25.360Z,100353.69
2023-01-12T14:51:17.563Z,100341.13
2023-01-12T14:53:49.517Z,100350.72
2023-01-12T14:56:23.307Z,100347.78
2023-01-12T14:58:51.816Z,100357.00
2023-01-12T15:01:34.099Z,100344.66
2023-01-12T15:04:06.634Z,100349.63
2023-01-12T15:06:41.988Z,100347.22
2023-01-12T15:09:28.502Z,100341.13
2023-01-12T15:11:56.969Z,100352.94
2023-01-12T15:14:29.484Z,100350.91
2023-01-12T15:17:15.383Z,100342.03
2023-01-12T15:20:04.484Z,100345.19
2023-01-12T15:22:52.778Z,100352.56
2023-01-12T15:25:38.024Z,100349.63
2023-01-12T15:28:08.471Z,100342.03
2023-01-12T15:30:39.789Z,100347.56
2023-01-12T15:33:10.816Z,100350.00
2023-01-12T15:35:47.025Z,100338.72
2023-01-12T15:38:21.867Z,100333.56
2023-01-12T15:40:54.265Z,100340.38
2023-01-12T15:43:23.049Z,100334.84
2023-01-12T15:45:54.999Z,100335.56
2023-01-12T15:48:24.508Z,100329.88
2023-01-12T15:50:54.400Z,100330.59
2023-01-12T15:53:25.457Z,100335.56
2023-01-12T15:55:58.538Z,100330.59
2023-01-12T15:58:26.766Z,100345.19
2023-01-12T16:01:03.191Z,100341.69
2023-01-12T16:04:00.587Z,100333.72
2023-01-12T16:06:20.789Z,100344.81
2023-01-12T16:08:51.043Z,100340.03
2023-01-12T16:11:24.253Z,100332.63
2023-01-12T16:13:52.633Z,100335.56
2023-01-12T16:16:22.481Z,100339.44
2023-01-12T16:18:50.773Z,100327.44
2023-01-12T16:21:22.837Z,100335.22
2023-01-12T16:24:00.811Z,100335.22
2023-01-12T16:26:32.631Z,100333.38
2023-01-12T16:29:01.289Z,100335.75
2023-01-12T16:31:30.531Z,100331.72
2023-01-12T16:34:00.344Z,100334.66
2023-01-12T16:36:30.589Z,100326.91
2023-01-12T16:38:59.588Z,100328.56
2023-01-12T16:41:28.851Z,100326.34
2023-01-12T16:44:00.433Z,100327.09
2023-01-12T16:46:29.952Z,100324.50
2023-01-12T16:48:58.992Z,100333.38
2023-01-12T16:51:27.654Z,100325.25
2023-01-12T16:53:59.452Z,100319.16
2023-01-12T16:56:29.800Z,100313.06
2023-01-12T16:58:58.954Z,100308.97
2023-01-12T17:01:28.983Z,100314.53
2023-01-12T17:03:58.107Z,100299.03
2023-01-12T17:06:34.941Z,100299.56
2023-01-12T17:09:06.280Z,100304.03
2023-01-12T17:11:39.631Z,100287.41
2023-01-12T17:14:24.538Z,100288.31
2023-01-12T17:16:57.229Z,100278.91
2023-01-12T17:19:28.068Z,100286.81
2023-01-12T17:21:58.472Z,100284.63
2023-01-12T17:24:27.402Z,100265.41
2023-01-12T17:26:56.897Z,100271.72
2023-01-12T17:29:27.185Z,100269.47
2023-01-12T17:32:06.003Z,100278.72
2023-01-12T17:34:38.100Z,100272.06
2023-01-12T17:37:08.820Z,100263.94
2023-01-12T17:39:39.592Z,100276.13
2023-01-12T17:42:26.509Z,100279.44
2023-01-12T17:44:55.375Z,100284.78
2023-01-12T17:47:25.733Z,100283.53
2023-01-12T17:49:55.520Z,100290.53
2023-01-12T17:52:24.195Z,100291.25
2023-01-12T17:54:52.485Z,100277.97
2023-01-12T17:57:22.952Z,100269.84
2023-01-12T17:59:51.951Z,100277.97
2023-01-12T18:02:22.597Z,100276.50
2023-01-12T18:04:52.199Z,100288.69
2023-01-12T18:07:21.279Z,100278.72
2023-01-12T18:09:49.460Z,100270.97
2023-01-12T18:12:21.348Z,100275.75
2023-01-12T18:14:50.440Z,100274.66
2023-01-12T18:17:19.247Z,100262.84
2023-01-12T18:19:48.662Z,100262.47
2023-01-12T18:22:18.575Z,100267.28
2023-01-12T18:24:50.108Z,100256.22
2023-01-12T18:27:18.512Z,100271.38
2023-01-12T18:29:48.850Z,100260.84
2023-01-12T18:32:16.998Z,100266.91
2023-01-12T18:34:46.160Z,100264.53
2023-01-12T18:37:16.098Z,100275.22
2023-01-12T18:39:47.133Z,100260.84
2023-01-12T18:42:33.524Z,100258.22
2023-01-12T18:45:04.719Z,100262.88
2023-01-12T18:47:50.301Z,100279.84
2023-01-12T18:50:36.189Z,100262.09
2023-01-12T18:53:22.264Z,100276.91
2023-01-12T18:55:54.873Z,100276.53
2023-01-12T18:58:25.950Z,100261.56
2023-01-12T19:00:55.087Z,100266.91
2023-01-12T19:03:23.466Z,100268.56
2023-01-12T19:05:59.995Z,100269.31
2023-01-12T19:08:47.610Z,100277.25
2023-01-12T19:11:19.060Z,100273.75
2023-01-12T19:14:05.275Z,100274.69
2023-01-12T19:16:52.439Z,100277.25
2023-01-12T19:19:25.761Z,100269.13
2023-01-12T19:22:12.313Z,100275.75
2023-01-12T19:24:59.483Z,100265.59
2023-01-12T19:27:46.917Z,100264.69
2023-01-12T19:30:17.123Z,100274.81
2023-01-12T19:32:45.430Z,100273.56
2023-01-12T19:35:14.143Z,100271.13
2023-01-12T19:37:49.785Z,100262.09
2023-01-12T19:40:26.173Z,100256.94
2023-01-12T19:43:14.521Z,100257.50
2023-01-12T19:45:44.920Z,100258.22
2023-01-12T19:48:15.689Z,100263.94
2023-01-12T19:50:45.031Z,100257.69
2023-01-12T19:53:16.648Z,100244.97
2023-01-12T19:55:47.946Z,100237.59
2023-01-12T19:58:22.122Z,100236.84
2023-01-12T20:00:51.489Z,100229.28
2023-01-12T20:03:22.062Z,100229.47
2023-01-12T20:05:54.142Z,100226.88
2023-01-12T20:08:24.904Z,100227.44
2023-01-12T20:10:55.816Z,100229.09
2023-01-12T20:13:26.404Z,100227.25
2023-01-12T20:15:57.825Z,100220.25
2023-01-12T20:18:27.012Z,100221.53
2023-01-12T20:20:59.193Z,100212.28
2023-01-12T20:23:29.048Z,100214.53
2023-01-12T20:25:57.628Z,100204.75
2023-01-12T20:28:28.535Z,100213.41
2023-01-12T20:30:59.275Z,100208.25
2023-01-12T20:33:29.457Z,100210.09
2023-01-12T20:35:58.313Z,100198.28
2023-01-12T20:38:27.109Z,100197.53
2023-01-12T20:40:56.843Z,100199.97
2023-01-12T20:43:25.067Z,100201.97
2023-01-12T20:45:54.636Z,100204.91
2023-01-12T20:48:25.908Z,100197.19
2023-01-12T20:50:55.541Z,100199.56
2023-01-12T20:53:26.900Z,100202.72
2023-01-12T20:55:56.273Z,100202.88
2023-01-12T20:58:27.319Z,100200.13
2023-01-12T21:01:00.108Z,100188.16
2023-01-12T21:03:29.069Z,100199.75
2023-01-12T21:05:59.873Z,100193.28
2023-01-12T21:08:28.075Z,100188.31
2023-01-12T21:10:56.880Z,100189.22
2023-01-12T21:13:25.450Z,100187.38
2023-01-12T21:16:02.623Z,100189.97
2023-01-12T21:18:31.870Z,100188.69
2023-01-12T21:21:00.434Z,100188.69
2023-01-12T21:23:29.868Z,100189.59
2023-01-12T21:25:59.270Z,100190.72
2023-01-12T21:28:30.226Z,100185.72
2023-01-12T21:31:02.974Z,100187.38
2023-01-12T21:33:33.324Z,100178.34
2023-01-12T21:36:02.042Z,100176.88
2023-01-12T21:38:31.470Z,100182.03
2023-01-12T21:41:04.303Z,100171.69
2023-01-12T21:43:35.948Z,100164.69
2023-01-12T21:46:07.995Z,100172.44
2023-01-12T21:48:36.530Z,100169.50
2023-01-12T21:51:06.713Z,100175.75
2023-01-12T21:53:36.430Z,100166.00
2023-01-12T21:56:05.803Z,100167.09
2023-01-12T21:58:36.341Z,100159.53
2023-01-12T22:01:10.932Z,100166.53
2023-01-12T22:03:39.859Z,100167.66
2023-01-12T22:06:17.069Z,100159.53
2023-01-12T22:08:45.909Z,100159.88
2023-01-12T22:11:16.552Z,100157.84
2023-01-12T22:13:48.524Z,100161.38
2023-01-12T22:16:18.678Z,100156.38
2023-01-12T22:18:50.782Z,100159.53
2023-01-12T22:21:21.829Z,100153.25
2023-01-12T22:23:51.296Z,100155.47
2023-01-12T22:26:23.210Z,100148.84
2023-01-12T22:28:52.814Z,100155.50
2023-01-12T22:31:24.767Z,100154.75
2023-01-12T22:34:04.132Z,100157.84
2023-01-12T22:36:34.851Z,100155.09
2023-01-12T22:39:03.947Z,100157.69
2023-01-12T22:41:32.361Z,100154.75
2023-01-12T22:44:01.075Z,100152.31
2023-01-12T22:46:30.815Z,100156.56
2023-01-12T22:48:59.610Z,100149.03
2023-01-12T22:51:29.459Z,100150.66
2023-01-12T22:54:07.010Z,100147.34
2023-01-12T22:56:37.367Z,100147.38
2023-01-12T22:59:06.682Z,100144.56
2023-01-12T23:01:36.519Z,100147.69
2023-01-12T23:04:04.489Z,100142.38
2023-01-12T23:06:32.873Z,100142.34
2023-01-12T23:09:01.937Z,100132.78
2023-01-12T23:11:31.225Z,100129.78
2023-01-12T23:13:59.778Z,100128.13
2023-01-12T23:16:28.672Z,100129.25
2023-01-12T23:18:58.356Z,100134.59
2023-01-12T23:21:28.806Z,100122.22
2023-01-12T23:23:58.760Z,100122.78
2023-01-12T23:26:31.097Z,100124.06
2023-01-12T23:29:02.728Z,100123.72
2023-01-12T23:31:34.083Z,100121.84
2023-01-12T23:34:04.765Z,100116.31
2023-01-12T23:36:33.405Z,100118.69
2023-01-12T23:39:04.927Z,100114.84
2023-01-12T23:41:35.901Z,100118.94
2023-01-12T23:44:07.597Z,100119.47
2023-01-12T23:46:40.270Z,100117.66
2023-01-12T23:49:13.324Z,100108.41
2023-01-12T23:51:41.696Z,100108.38
2023-01-12T23:54:16.555Z,100104.50
2023-01-12T23:56:44.924Z,100108.16
2023-01-12T23:59:18.095Z,100103.56
